Time;durP1;ratioP1;P1;durP2;ratioP2;P2;SDS_P1;SDS_P2;PMS_P1;PMS_P2;Temp;Humidity;BMP_temperature;BMP_pressure;BME280_temperature;BME280_humidity;BME280_pressure;Samples;Min_cycle;Max_cycle;Signal;HPM_P1;HPM_P2
2022/08/11 00:00:36;;;;;;;2.80;2.60;;;;;;;15.38;96.58;101603.00;4939052;28;20224;-72
2022/08/11 00:03:06;;;;;;;3.13;2.70;;;;;;;15.47;98.40;101592.19;4969357;28;20256;-73
2022/08/11 00:05:43;;;;;;;2.83;2.57;;;;;;;15.33;96.68;101600.50;4971492;28;20704;-73
2022/08/11 00:08:11;;;;;;;4.00;2.73;;;;;;;15.28;97.93;101599.78;4970070;28;20716;-72
2022/08/11 00:10:38;;;;;;;4.50;3.40;;;;;;;15.33;98.01;101600.50;4972525;28;20208;-72
2022/08/11 00:13:07;;;;;;;5.07;2.90;;;;;;;15.09;92.47;101610.00;4971257;28;20795;-73
2022/08/11 00:15:41;;;;;;;4.37;2.80;;;;;;;14.96;92.28;101614.72;4986763;28;20225;-73
2022/08/11 00:18:09;;;;;;;3.47;3.00;;;;;;;14.96;94.48;101613.88;4989293;28;20674;-73
2022/08/11 00:20:40;;;;;;;7.40;3.00;;;;;;;15.03;95.70;101614.56;4993087;28;20216;-73
2022/08/11 00:23:09;;;;;;;3.30;3.00;;;;;;;15.09;97.89;101615.25;4974563;28;20197;-73
2022/08/11 00:25:38;;;;;;;5.70;3.50;;;;;;;14.95;93.13;101620.00;4981256;28;20232;-73
2022/08/11 00:28:22;;;;;;;3.97;3.47;;;;;;;15.04;96.31;101614.53;4972547;28;20196;-72
2022/08/11 00:30:51;;;;;;;4.70;3.57;;;;;;;15.08;97.87;101607.41;4973386;28;20209;-73
2022/08/11 00:33:20;;;;;;;3.27;2.97;;;;;;;15.15;99.16;101596.66;4972356;28;20212;-73
2022/08/11 00:35:50;;;;;;;3.97;3.23;;;;;;;15.23;100.00;101599.09;4983365;28;20208;-72
2022/08/11 00:38:18;;;;;;;5.20;3.40;;;;;;;15.19;98.95;101596.59;4965391;28;20221;-72
2022/08/11 00:40:52;;;;;;;3.40;3.10;;;;;;;15.26;100.00;101596.34;4974202;28;20221;-72
2022/08/11 00:43:23;;;;;;;3.50;2.90;;;;;;;15.17;98.66;101606.28;4978535;28;20693;-72
2022/08/11 00:46:11;;;;;;;5.73;3.10;;;;;;;15.17;98.86;101595.78;4980440;28;20202;-72
2022/08/11 00:48:48;;;;;;;3.87;3.07;;;;;;;14.99;96.21;101607.69;4979839;28;20666;-72
2022/08/11 00:51:30;;;;;;;4.67;3.27;;;;;;;15.04;99.16;101604.03;4987298;28;20231;-72
2022/08/11 00:54:07;;;;;;;4.63;2.90;;;;;;;15.13;99.63;101598.50;4975843;28;20229;-72
2022/08/11 00:57:15;;;;;;;3.53;3.13;;;;;;;15.07;99.38;101593.41;4975926;28;20283;-72
2022/08/11 01:00:05;;;;;;;4.27;3.20;;;;;;;15.05;99.85;101597.00;4970350;28;20424;-72
2022/08/11 01:02:46;;;;;;;3.23;2.63;;;;;;;15.06;100.00;101604.81;4986831;28;20202;-72
2022/08/11 01:05:38;;;;;;;4.07;2.97;;;;;;;15.09;100.00;101599.50;4973785;28;20225;-72
2022/08/11 01:09:06;;;;;;;3.07;2.63;;;;;;;15.07;100.00;101606.53;4972466;28;20201;-72
2022/08/11 01:11:56;;;;;;;3.57;2.77;;;;;;;14.95;99.46;101602.53;4979270;28;20200;-72
2022/08/11 01:14:44;;;;;;;4.37;2.67;;;;;;;15.01;100.00;101601.47;4973431;28;20221;-72
2022/08/11 01:17:46;;;;;;;3.20;2.90;;;;;;;14.94;100.00;101608.66;4972861;28;20208;-72
2022/08/11 01:20:45;;;;;;;8.33;3.27;;;;;;;14.94;100.00;101600.78;4987519;28;20217;-72
2022/08/11 01:23:58;;;;;;;4.00;2.93;;;;;;;14.81;100.00;101599.44;4975793;28;20197;-72
2022/08/11 01:27:06;;;;;;;4.17;2.53;;;;;;;14.83;100.00;101605.50;4973549;28;20209;-72
2022/08/11 01:30:03;;;;;;;4.03;3.00;;;;;;;14.74;100.00;101606.63;4972912;28;20202;-72
2022/08/11 01:33:06;;;;;;;3.17;2.80;;;;;;;14.76;100.00;101609.19;4984718;28;20615;-72
2022/08/11 01:36:24;;;;;;;4.27;2.63;;;;;;;14.65;100.00;101604.25;4971166;28;20229;-72
2022/08/11 01:39:29;;;;;;;5.57;2.70;;;;;;;14.61;100.00;101601.75;4927253;28;20210;-72
2022/08/11 01:45:16;;;;;;;3.77;2.93;;;;;;;14.52;100.00;101602.81;4978717;28;20301;-72
2022/08/11 01:47:52;;;;;;;3.33;2.70;;;;;;;14.52;100.00;101606.28;4968664;28;20204;-72
2022/08/11 01:50:35;;;;;;;7.33;3.00;;;;;;;14.47;100.00;101602.94;4978743;28;20216;-72
2022/08/11 01:53:12;;;;;;;3.63;3.00;;;;;;;14.48;100.00;101603.81;4975842;28;20211;-72
2022/08/11 01:55:49;;;;;;;5.03;3.10;;;;;;;14.54;100.00;101601.88;4978315;28;20305;-72
2022/08/11 01:58:25;;;;;;;3.13;2.77;;;;;;;14.43;100.00;101614.41;4971199;28;20246;-72
2022/08/11 02:00:58;;;;;;;7.43;2.67;;;;;;;14.38;100.00;101614.53;4961485;28;20221;-72
2022/08/11 02:03:29;;;;;;;4.73;2.80;;;;;;;14.45;100.00;101609.13;4976560;28;20211;-72
2022/08/11 02:06:53;;;;;;;4.73;2.90;;;;;;;14.48;100.00;101612.53;4978036;28;20216;-72
2022/08/11 02:09:03;;;;;;;4.60;2.77;;;;;;;14.44;100.00;101613.53;4967046;28;20207;-72
2022/08/11 02:11:32;;;;;;;3.90;3.00;;;;;;;14.38;100.00;101611.91;4973067;28;20201;-72
2022/08/11 02:14:06;;;;;;;3.60;2.90;;;;;;;14.32;100.00;101608.59;4964513;28;20318;-72
2022/08/11 02:16:48;;;;;;;5.53;3.20;;;;;;;14.33;100.00;101605.91;4973928;28;20195;-72
2022/08/11 02:25:09;;;;;;;4.43;2.90;;;;;;;14.20;100.00;101604.53;4988561;28;20223;-72
2022/08/11 02:27:41;;;;;;;3.50;2.90;;;;;;;14.14;100.00;101607.28;4994797;28;20200;-72
2022/08/11 02:30:13;;;;;;;5.37;3.27;;;;;;;14.24;100.00;101607.94;4964483;28;20659;-72
2022/08/11 02:35:44;;;;;;;4.17;2.90;;;;;;;14.17;100.00;101607.22;4955696;28;20238;-72
2022/08/11 02:38:26;;;;;;;3.33;3.03;;;;;;;14.22;100.00;101599.25;4983287;28;20194;-72
2022/08/11 02:42:21;;;;;;;3.80;3.40;;;;;;;14.27;100.00;101607.88;4983051;28;20587;-72
2022/08/11 02:44:09;;;;;;;6.23;2.97;;;;;;;14.17;100.00;101608.06;4978476;28;20708;-73
2022/08/11 02:46:48;;;;;;;3.43;3.07;;;;;;;14.20;100.00;101608.00;4979749;28;20207;-73
2022/08/11 02:52:23;;;;;;;6.33;3.17;;;;;;;14.11;100.00;101604.78;4983575;28;20272;-72
2022/08/11 02:55:02;;;;;;;4.00;3.27;;;;;;;14.04;100.00;101611.06;4979862;28;20215;-72
2022/08/11 02:57:37;;;;;;;4.53;2.80;;;;;;;14.11;100.00;101604.78;4970054;28;20218;-72
2022/08/11 03:00:08;;;;;;;3.37;3.00;;;;;;;14.13;100.00;101605.59;4983093;28;20218;-73
2022/08/11 03:02:49;;;;;;;4.57;3.40;;;;;;;14.10;100.00;101603.03;4977800;28;20203;-71
2022/08/11 03:05:24;;;;;;;3.90;3.07;;;;;;;13.92;100.00;101601.75;4956436;28;20245;-72
2022/08/11 03:08:13;;;;;;;4.47;3.47;;;;;;;13.96;100.00;101598.13;4973518;28;20222;-72
2022/08/11 03:16:43;;;;;;;3.93;3.33;;;;;;;13.94;100.00;101600.78;4974220;28;20667;-72
2022/08/11 03:16:47;;;;;;;4.63;3.60;;;;;;;13.82;100.00;101606.34;4976589;28;20209;-72
2022/08/11 03:19:21;;;;;;;3.83;3.43;;;;;;;13.69;100.00;101604.91;4977359;28;20208;-72
2022/08/11 03:21:59;;;;;;;4.50;3.10;;;;;;;13.78;100.00;101602.06;4988513;28;20217;-72
2022/08/11 03:24:33;;;;;;;3.83;2.73;;;;;;;13.82;100.00;101603.72;4985358;28;20235;-72
2022/08/11 03:27:09;;;;;;;3.93;2.97;;;;;;;13.77;100.00;101609.09;4956144;28;20217;-72
2022/08/11 03:29:50;;;;;;;5.27;3.03;;;;;;;13.63;100.00;101612.03;4981718;28;20206;-72
2022/08/11 03:32:26;;;;;;;4.30;3.20;;;;;;;13.63;100.00;101609.41;4956416;28;20240;-72
2022/08/11 03:34:53;;;;;;;4.73;3.30;;;;;;;13.64;100.00;101610.25;4974190;28;20225;-72
2022/08/11 03:37:50;;;;;;;6.20;4.13;;;;;;;13.64;100.00;101611.09;4978699;28;20194;-72
2022/08/11 03:43:32;;;;;;;4.17;3.30;;;;;;;13.52;100.00;101613.16;4980538;28;20205;-72
2022/08/11 03:46:05;;;;;;;6.03;3.90;;;;;;;13.57;100.00;101616.53;4973383;28;20202;-73
2022/08/11 03:48:43;;;;;;;5.57;3.57;;;;;;;13.56;100.00;101614.81;4982761;28;20217;-73
2022/08/11 03:51:22;;;;;;;4.33;3.10;;;;;;;13.63;100.00;101617.25;4962711;28;20660;-72
2022/08/11 03:54:08;;;;;;;4.33;3.73;;;;;;;13.61;100.00;101618.19;4976792;28;20719;-72
2022/08/11 03:57:08;;;;;;;6.67;3.47;;;;;;;13.48;100.00;101624.63;4986937;28;20197;-72
2022/08/11 04:00:07;;;;;;;4.50;3.40;;;;;;;13.41;100.00;101619.50;4972105;28;20203;-72
2022/08/11 04:03:27;;;;;;;4.03;3.10;;;;;;;13.58;100.00;101618.28;4984773;28;20237;-72
2022/08/11 04:06:36;;;;;;;4.07;3.53;;;;;;;13.57;100.00;101622.63;4962856;28;20677;-72
2022/08/11 04:09:23;;;;;;;8.43;3.60;;;;;;;13.47;100.00;101621.13;4960281;28;20191;-72
2022/08/11 04:12:24;;;;;;;4.17;3.77;;;;;;;13.68;100.00;101621.53;4957010;28;20203;-73
2022/08/11 04:18:39;;;;;;;4.57;3.47;;;;;;;13.55;100.00;101626.19;4980538;28;20201;-72
2022/08/11 04:21:20;;;;;;;4.97;3.77;;;;;;;13.49;100.00;101626.31;4987506;28;20216;-72
2022/08/11 04:24:14;;;;;;;5.07;3.70;;;;;;;13.62;100.00;101626.00;4980123;28;20255;-72
2022/08/11 04:27:01;;;;;;;6.50;3.43;;;;;;;13.69;100.00;101624.13;4971824;28;20207;-72
2022/08/11 04:29:43;;;;;;;3.80;3.40;;;;;;;13.75;100.00;101621.34;4991290;28;20213;-73
2022/08/11 04:32:37;;;;;;;3.87;3.43;;;;;;;13.80;100.00;101626.47;4976531;28;20202;-72
2022/08/11 04:35:32;;;;;;;4.77;3.60;;;;;;;13.94;100.00;101624.38;4975611;28;20238;-72
2022/08/11 04:38:22;;;;;;;4.37;3.53;;;;;;;13.90;100.00;101629.75;4967922;28;20209;-73
2022/08/11 04:41:19;;;;;;;5.70;3.43;;;;;;;14.14;100.00;101625.66;4987745;28;20278;-72
2022/08/11 04:44:18;;;;;;;4.33;3.30;;;;;;;14.28;100.00;101627.94;4977897;28;20231;-71
2022/08/11 04:46:59;;;;;;;4.53;3.47;;;;;;;14.35;100.00;101624.25;4984754;28;20202;-72
2022/08/11 05:02:26;;;;;;;4.03;3.30;;;;;;;14.93;100.00;101638.47;4979638;28;20212;-72
2022/08/11 05:08:39;;;;;;;5.03;4.20;;;;;;;15.04;100.00;101642.53;4978717;28;20270;-73
2022/08/11 05:11:30;;;;;;;6.53;4.10;;;;;;;15.19;100.00;101633.34;4985864;28;20214;-72
2022/08/11 05:37:11;;;;;;;3.93;3.53;;;;;;;16.12;94.89;101662.94;4934947;28;20557;-72
2022/08/11 05:56:31;;;;;;;3.43;2.83;;;;;;;16.87;88.20;101675.31;4974684;28;20610;-73
2022/08/11 05:58:59;;;;;;;3.70;2.70;;;;;;;16.90;83.38;101683.13;4974627;28;20562;-72
2022/08/11 06:01:29;;;;;;;3.77;2.67;;;;;;;17.02;84.46;101678.25;4983292;28;20216;-73
2022/08/11 06:04:16;;;;;;;5.20;3.10;;;;;;;17.16;82.71;101682.16;4964490;28;20252;-73
2022/08/11 06:06:57;;;;;;;2.77;2.57;;;;;;;17.29;83.36;101683.44;4971555;28;20197;-72
2022/08/11 06:09:30;;;;;;;2.80;2.30;;;;;;;17.38;83.37;101685.72;4962833;28;20209;-73
2022/08/11 06:12:02;;;;;;;3.10;2.67;;;;;;;17.52;83.37;101684.31;4970731;28;20204;-73
2022/08/11 06:14:31;;;;;;;3.30;2.87;;;;;;;17.58;78.83;101686.75;4973236;28;20308;-73
2022/08/11 06:16:59;;;;;;;3.10;2.77;;;;;;;17.70;80.32;101680.97;4972771;28;20205;-72
2022/08/11 06:19:34;;;;;;;2.97;2.43;;;;;;;17.79;81.07;101683.25;4973375;28;20220;-73
2022/08/11 06:22:03;;;;;;;2.83;2.57;;;;;;;17.88;78.19;101686.50;4979552;28;20209;-73
2022/08/11 06:24:31;;;;;;;2.90;2.53;;;;;;;18.00;79.80;101688.63;4968895;28;20233;-72
2022/08/11 06:26:59;;;;;;;3.37;2.80;;;;;;;18.09;78.61;101685.59;4957454;28;20212;-72
2022/08/11 06:29:27;;;;;;;3.13;2.53;;;;;;;18.21;78.34;101680.75;4975854;28;20292;-72
2022/08/11 06:31:58;;;;;;;3.77;2.80;;;;;;;18.32;78.49;101689.94;4981252;28;20211;-72
2022/08/11 06:34:37;;;;;;;4.10;2.63;;;;;;;18.43;73.95;101689.47;5015886;23;20230;-76
2022/08/11 06:37:17;;;;;;;5.00;2.70;;;;;;;18.58;73.75;101705.63;5020941;28;20683;-76
2022/08/11 06:39:50;;;;;;;3.83;2.67;;;;;;;18.77;72.05;101706.53;5019197;28;20211;-76
2022/08/11 06:42:40;;;;;;;3.00;2.47;;;;;;;18.91;72.92;101704.19;5030690;28;20590;-76
2022/08/11 06:45:16;;;;;;;3.67;2.63;;;;;;;18.99;73.32;101709.13;5021017;28;20218;-76
2022/08/11 06:47:47;;;;;;;5.17;2.40;;;;;;;19.15;70.36;101711.09;5017846;28;20202;-76
2022/08/11 06:53:05;;;;;;;2.70;2.50;;;;;;;19.42;69.12;101703.69;5022312;28;20781;-76
2022/08/11 07:01:09;;;;;;;3.03;2.10;;;;;;;19.97;63.92;101702.91;5014881;28;20751;-76
2022/08/11 07:03:42;;;;;;;3.97;2.33;;;;;;;20.13;63.95;101711.78;5023979;28;20290;-76
2022/08/11 07:06:22;;;;;;;3.27;2.00;;;;;;;20.35;62.88;101708.94;5021496;28;20207;-76
2022/08/11 07:15:42;;;;;;;2.77;2.30;;;;;;;20.65;62.84;101699.53;5024894;28;20204;-76
2022/08/11 07:29:31;;;;;;;2.77;2.30;;;;;;;21.21;57.64;101700.97;5026586;28;20223;-76
2022/08/11 07:32:03;;;;;;;2.60;2.07;;;;;;;21.43;56.72;101706.00;5026070;28;20217;-76
2022/08/11 07:34:33;;;;;;;2.20;2.00;;;;;;;21.55;55.42;101696.53;5016099;28;20269;-77
2022/08/11 07:37:08;;;;;;;3.27;2.37;;;;;;;21.61;55.95;101695.34;5018013;28;20557;-77
2022/08/11 07:39:37;;;;;;;3.17;2.30;;;;;;;21.65;54.91;101681.81;5027090;28;20250;-76
2022/08/11 07:42:07;;;;;;;2.27;2.07;;;;;;;21.70;57.50;101677.06;5027544;28;20231;-76
2022/08/11 07:48:10;;;;;;;5.13;2.33;;;;;;;21.79;56.33;101678.34;5024858;28;20676;-76
2022/08/11 07:52:54;;;;;;;3.43;2.67;;;;;;;22.33;53.27;101679.75;5012933;28;20309;-76
2022/08/11 07:55:24;;;;;;;4.13;2.40;;;;;;;22.43;53.28;101675.63;5020403;28;20204;-76
2022/08/11 08:19:52;;;;;;;2.27;1.90;;;;;;;23.70;48.22;101658.84;5027500;28;20232;-74
2022/08/11 08:22:20;;;;;;;2.70;1.83;;;;;;;23.81;48.18;101660.84;5025688;28;20979;-75
2022/08/11 08:24:49;;;;;;;2.07;1.70;;;;;;;23.92;48.69;101657.47;5029039;28;20203;-75
2022/08/11 08:27:16;;;;;;;3.33;2.08;;;;;;;23.96;48.23;101654.50;5019478;28;20287;-74
2022/08/11 08:32:31;;;;;;;1.50;1.40;;;;;;;24.21;48.35;101658.19;5030052;28;20243;-74
2022/08/11 08:34:58;;;;;;;1.33;1.23;;;;;;;24.35;42.16;101663.41;5028380;28;20269;-74
2022/08/11 08:37:26;;;;;;;1.33;1.10;;;;;;;24.53;42.05;101657.78;5019287;28;20297;-74
2022/08/11 08:39:55;;;;;;;1.48;1.10;;;;;;;24.73;41.02;101665.31;5024461;28;20231;-74
2022/08/11 08:42:25;;;;;;;1.30;1.20;;;;;;;24.95;40.65;101672.63;5023753;28;20611;-74
2022/08/11 08:44:57;;;;;;;1.38;1.27;;;;;;;25.02;39.12;101664.22;5028116;28;20285;-74
2022/08/11 08:47:26;;;;;;;2.80;1.13;;;;;;;25.04;39.99;101672.94;5020434;28;20219;-74
2022/08/11 08:50:00;;;;;;;2.08;1.60;;;;;;;25.09;39.50;101673.47;5023850;28;20228;-75
2022/08/11 08:52:30;;;;;;;1.42;1.33;;;;;;;25.17;38.88;101662.25;5021170;28;20207;-75
2022/08/11 08:55:02;;;;;;;1.60;1.40;;;;;;;25.35;40.20;101652.09;5016055;28;20203;-75
2022/08/11 08:57:33;;;;;;;1.45;1.35;;;;;;;25.57;39.41;101662.06;5024329;28;20224;-75
2022/08/11 09:00:01;;;;;;;1.27;1.17;;;;;;;25.70;38.18;101653.03;5019380;28;20691;-74
2022/08/11 09:02:28;;;;;;;1.20;1.10;;;;;;;25.67;38.94;101658.59;5015041;28;20219;-74
2022/08/11 09:04:55;;;;;;;1.85;1.30;;;;;;;25.73;37.44;101656.44;5024615;28;20680;-75
2022/08/11 09:07:25;;;;;;;2.20;1.30;;;;;;;25.78;37.66;101657.81;5024387;28;20214;-75
2022/08/11 09:09:53;;;;;;;1.40;1.10;;;;;;;25.73;36.57;101653.78;5015605;28;20231;-75
2022/08/11 09:12:25;;;;;;;1.20;1.10;;;;;;;25.87;36.13;101656.25;5026190;28;20192;-74
2022/08/11 09:15:02;;;;;;;1.30;1.20;;;;;;;25.83;36.22;101660.97;5019433;28;20203;-75
2022/08/11 09:17:31;;;;;;;2.22;1.10;;;;;;;25.77;35.83;101645.44;5010585;28;20211;-75
2022/08/11 09:20:00;;;;;;;1.13;1.02;;;;;;;25.82;36.05;101645.94;5023253;28;20228;-74
2022/08/11 09:27:59;;;;;;;1.10;0.90;;;;;;;26.03;35.19;101642.63;5020675;28;20204;-74
2022/08/11 09:30:27;;;;;;;1.20;0.90;;;;;;;26.10;34.04;101646.53;5027823;28;20219;-74
2022/08/11 09:32:56;;;;;;;1.40;1.00;;;;;;;26.18;35.03;101652.16;5025839;28;20200;-74
2022/08/11 09:35:25;;;;;;;0.90;0.90;;;;;;;26.26;34.43;101654.25;5022852;28;20583;-75
2022/08/11 09:40:38;;;;;;;1.83;1.30;;;;;;;26.22;34.35;101650.13;5022261;28;20250;-74
2022/08/11 09:45:55;;;;;;;2.28;1.48;;;;;;;25.92;34.10;101645.25;5019896;28;20203;-75
2022/08/11 09:48:25;;;;;;;1.30;1.00;;;;;;;26.04;35.79;101636.34;5019509;28;20236;-74
2022/08/11 09:50:54;;;;;;;1.52;0.90;;;;;;;26.10;33.74;101646.53;5020654;28;20200;-74
2022/08/11 09:53:22;;;;;;;1.30;1.20;;;;;;;26.20;33.05;101644.03;5026017;28;20584;-75
2022/08/11 09:55:50;;;;;;;0.80;0.80;;;;;;;26.34;33.53;101642.97;5029521;28;20199;-75
2022/08/11 09:58:18;;;;;;;1.13;0.98;;;;;;;26.48;32.79;101637.41;5025584;28;20219;-74
2022/08/11 10:00:48;;;;;;;0.90;0.90;;;;;;;26.48;34.20;101633.91;5021362;28;20211;-74
2022/08/11 10:03:16;;;;;;;0.77;0.77;;;;;;;26.62;33.20;101631.03;5014827;28;20775;-74
2022/08/11 10:08:32;;;;;;;2.35;1.00;;;;;;;26.83;32.67;101631.16;5024014;28;20288;-74
2022/08/11 10:11:00;;;;;;;1.10;1.00;;;;;;;26.70;31.64;101625.06;5025057;28;20204;-74
2022/08/11 10:15:32;;;;;;;0.93;0.88;;;;;;;26.72;31.80;101623.09;5026710;28;20597;-74
2022/08/11 10:16:23;;;;;;;0.90;0.75;;;;;;;26.79;31.58;101629.69;5023133;28;20366;-74
2022/08/11 10:18:51;;;;;;;1.40;0.70;;;;;;;26.82;31.53;101621.41;5021637;28;20242;-74
2022/08/11 10:21:27;;;;;;;1.02;0.80;;;;;;;26.94;31.06;101617.75;5017994;28;20204;-74
2022/08/11 10:26:53;;;;;;;0.95;0.80;;;;;;;26.75;31.18;101622.88;5012205;28;20726;-74
2022/08/11 10:34:53;;;;;;;1.02;0.70;;;;;;;27.03;29.10;101618.84;5022562;28;20486;-74
2022/08/11 10:37:22;;;;;;;0.80;0.80;;;;;;;27.10;29.54;101613.84;5021088;28;20704;-73
2022/08/11 10:39:49;;;;;;;0.68;0.52;;;;;;;27.30;30.36;101594.38;5021695;28;20227;-74
2022/08/11 10:47:33;;;;;;;0.70;0.70;;;;;;;27.23;29.49;101600.31;5018985;28;20211;-74
2022/08/11 10:47:54;;;;;;;0.68;0.68;;;;;;;27.19;30.14;101599.72;5025766;28;20215;-74
2022/08/11 10:58:47;;;;;;;2.47;0.93;;;;;;;27.27;28.15;101589.28;5026101;28;20298;-75
2022/08/11 11:01:16;;;;;;;0.60;0.60;;;;;;;27.30;28.32;101586.34;5024455;28;20195;-74
2022/08/11 11:03:44;;;;;;;0.80;0.73;;;;;;;27.06;26.95;101591.84;5025525;28;20232;-75
2022/08/11 11:06:24;;;;;;;0.82;0.70;;;;;;;27.24;28.17;101589.50;5025554;28;20211;-74
2022/08/11 11:08:56;;;;;;;1.00;0.90;;;;;;;27.15;27.72;101587.56;5024571;28;20653;-74
2022/08/11 11:17:54;;;;;;;0.63;0.60;;;;;;;27.25;27.58;101585.84;5021088;28;20606;-74
2022/08/11 11:19:51;;;;;;;0.68;0.68;;;;;;;27.36;27.09;101572.44;5016727;28;20319;-74
2022/08/11 11:22:38;;;;;;;2.58;0.70;;;;;;;27.26;26.75;101575.97;5021862;28;20222;-74
2022/08/11 11:25:16;;;;;;;0.88;0.70;;;;;;;27.15;26.57;101563.47;5020364;28;20209;-74
2022/08/11 11:27:56;;;;;;;0.77;0.65;;;;;;;27.32;27.13;101567.50;5015382;28;20200;-74
2022/08/11 11:30:32;;;;;;;1.55;0.75;;;;;;;27.37;26.90;101571.47;5017255;28;20210;-74
2022/08/11 11:33:08;;;;;;;0.75;0.70;;;;;;;27.50;27.14;101560.59;5017192;28;20207;-74
2022/08/11 11:35:48;;;;;;;0.60;0.60;;;;;;;27.28;26.61;101558.88;5023339;28;20212;-74
2022/08/11 11:38:15;;;;;;;0.70;0.70;;;;;;;27.21;26.87;101549.59;5023084;28;20281;-74
2022/08/11 11:40:42;;;;;;;0.65;0.65;;;;;;;27.36;26.96;101547.50;5024528;28;20219;-74
2022/08/11 11:43:10;;;;;;;0.85;0.80;;;;;;;27.47;27.73;101546.63;5027135;28;20227;-74
2022/08/11 11:45:36;;;;;;;0.70;0.65;;;;;;;27.65;27.71;101544.22;5027061;28;20196;-74
2022/08/11 11:48:05;;;;;;;0.75;0.70;;;;;;;27.86;28.07;101544.22;5021431;28;20868;-74
2022/08/11 11:50:35;;;;;;;1.10;0.80;;;;;;;27.91;28.01;101539.34;5022019;28;20683;-74
2022/08/11 11:53:05;;;;;;;4.60;0.68;;;;;;;27.86;27.92;101538.88;5021927;28;20191;-74
2022/08/11 11:55:32;;;;;;;2.90;0.73;;;;;;;27.99;26.31;101546.75;5028793;28;20780;-74
2022/08/11 12:03:32;;;;;;;2.42;0.80;;;;;;;27.70;26.74;101521.44;5018194;28;20238;-74
2022/08/11 12:05:58;;;;;;;0.68;0.68;;;;;;;27.66;27.38;101525.34;5027552;28;20203;-74
2022/08/11 12:08:26;;;;;;;0.77;0.77;;;;;;;27.72;28.42;101522.16;5020586;28;20321;-74
2022/08/11 12:13:39;;;;;;;0.55;0.45;;;;;;;27.85;27.68;101527.31;5017570;28;20207;-74
2022/08/11 12:13:41;;;;;;;0.70;0.70;;;;;;;27.80;28.61;101515.28;5020791;28;20310;-74
2022/08/11 12:16:09;;;;;;;0.60;0.60;;;;;;;27.86;27.83;101514.75;5026026;28;20236;-74
2022/08/11 12:18:38;;;;;;;0.57;0.57;;;;;;;28.10;28.09;101515.34;5025509;28;20583;-74
2022/08/11 12:21:05;;;;;;;1.52;0.80;;;;;;;28.17;27.64;101506.78;5022376;28;20660;-74
2022/08/11 12:29:05;;;;;;;0.75;0.65;;;;;;;27.62;26.78;101505.16;5023089;28;20228;-74
2022/08/11 12:31:32;;;;;;;0.68;0.65;;;;;;;27.56;27.16;101500.31;5021346;28;20204;-74
2022/08/11 12:34:04;;;;;;;0.60;0.60;;;;;;;27.57;26.87;101492.16;5027618;28;20267;-74
2022/08/11 12:36:35;;;;;;;0.98;0.70;;;;;;;27.49;27.21;101488.41;5019088;28;20382;-74
2022/08/11 12:39:05;;;;;;;0.93;0.80;;;;;;;27.61;27.28;101481.19;5024542;28;20212;-74
2022/08/11 12:47:03;;;;;;;0.47;0.47;;;;;;;27.90;27.57;101468.81;5025451;28;21037;-74
2022/08/11 12:52:23;;;;;;;0.80;0.80;;;;;;;27.91;27.14;101462.50;5027907;28;20204;-70
2022/08/11 12:54:57;;;;;;;0.60;0.60;;;;;;;28.00;27.14;101455.47;5032535;28;20243;-69
2022/08/11 13:05:48;;;;;;;1.00;0.90;;;;;;;28.21;26.37;101457.28;5033718;28;20637;-70
2022/08/11 13:08:16;;;;;;;0.98;0.70;;;;;;;28.12;26.29;101445.53;5028700;28;20201;-70
2022/08/11 13:13:29;;;;;;;1.15;0.80;;;;;;;28.26;25.39;101441.63;5031705;28;20199;-69
2022/08/11 13:15:57;;;;;;;1.02;0.80;;;;;;;28.11;25.94;101450.06;5031422;28;20691;-69
2022/08/11 13:18:26;;;;;;;1.38;0.88;;;;;;;28.20;26.14;101447.56;5031752;28;20200;-69
2022/08/11 13:20:56;;;;;;;0.73;0.65;;;;;;;28.09;25.58;101445.78;5026590;28;20279;-69
2022/08/11 13:23:24;;;;;;;0.60;0.60;;;;;;;28.13;26.07;101442.72;5026578;28;20696;-69
2022/08/11 13:25:53;;;;;;;0.75;0.75;;;;;;;28.21;25.69;101441.19;5033093;28;20235;-70
2022/08/11 13:28:21;;;;;;;0.80;0.70;;;;;;;28.37;25.93;101424.59;5029765;28;20550;-69
2022/08/11 13:33:35;;;;;;;0.73;0.73;;;;;;;28.56;25.34;101429.19;5019952;28;20188;-69
2022/08/11 13:36:05;;;;;;;0.80;0.80;;;;;;;28.55;24.65;101433.72;5040585;28;20223;-69
2022/08/11 13:38:33;;;;;;;0.80;0.80;;;;;;;28.48;25.20;101424.50;5025736;28;20250;-69
2022/08/11 13:40:59;;;;;;;0.50;0.50;;;;;;;28.37;24.97;101420.06;5027512;28;20204;-71
2022/08/11 13:43:27;;;;;;;0.80;0.80;;;;;;;28.38;24.97;101419.09;5028471;28;20218;-69
2022/08/11 13:46:17;;;;;;;0.60;0.60;;;;;;;28.37;24.79;101411.19;5030036;28;20243;-69
2022/08/11 13:48:42;;;;;;;0.47;0.47;;;;;;;28.31;25.30;101416.09;5022050;28;20212;-70
2022/08/11 13:53:55;;;;;;;1.08;0.70;;;;;;;28.50;26.14;101391.16;5027008;28;20223;-69
2022/08/11 13:56:22;;;;;;;3.42;0.93;;;;;;;28.45;25.79;101406.00;5021639;28;20199;-70
2022/08/11 13:58:49;;;;;;;0.82;0.77;;;;;;;28.32;26.02;101400.88;5026751;28;20204;-74
2022/08/11 14:01:17;;;;;;;1.00;0.77;;;;;;;28.39;25.78;101401.16;5027860;28;20216;-70
2022/08/11 14:03:46;;;;;;;2.20;1.00;;;;;;;28.47;24.89;101398.66;5028915;28;20211;-69
2022/08/11 14:06:17;;;;;;;0.80;0.80;;;;;;;28.61;26.28;101400.13;5031919;28;20222;-69
2022/08/11 14:08:45;;;;;;;0.70;0.70;;;;;;;28.73;25.54;101408.91;5022335;28;20208;-69
2022/08/11 14:13:58;;;;;;;0.85;0.70;;;;;;;28.73;25.93;101407.06;5026131;28;20188;-72
2022/08/11 14:16:31;;;;;;;2.25;0.80;;;;;;;28.51;25.49;101400.06;5033121;28;20467;-69
2022/08/11 14:19:02;;;;;;;0.80;0.70;;;;;;;28.63;26.26;101400.81;5027607;28;20209;-69
2022/08/11 14:24:26;;;;;;;1.10;0.80;;;;;;;28.63;25.57;101395.47;5031008;28;20811;-69
2022/08/11 14:26:55;;;;;;;1.00;0.80;;;;;;;28.73;26.11;101390.13;5025153;28;20750;-71
2022/08/11 14:29:26;;;;;;;0.80;0.80;;;;;;;28.79;25.97;101387.69;5028023;28;20212;-70
2022/08/11 14:31:56;;;;;;;0.70;0.63;;;;;;;28.73;25.48;101395.47;5032147;28;20962;-69
2022/08/11 14:34:24;;;;;;;0.98;0.80;;;;;;;28.50;25.82;101390.34;5030858;28;20588;-69
2022/08/11 14:36:55;;;;;;;1.05;0.75;;;;;;;28.60;25.38;101385.88;5026487;28;20215;-72
2022/08/11 14:39:24;;;;;;;0.80;0.80;;;;;;;28.42;25.63;101382.97;5020481;28;20211;-70
2022/08/11 14:47:26;;;;;;;1.02;0.80;;;;;;;28.45;25.61;101374.66;5034151;28;20194;-71
2022/08/11 14:49:58;;;;;;;2.03;0.90;;;;;;;28.28;26.03;101380.69;5029606;28;20199;-69
2022/08/11 14:52:27;;;;;;;0.95;0.80;;;;;;;28.26;26.25;101379.97;5026589;28;20568;-69
2022/08/11 14:57:40;;;;;;;0.68;0.63;;;;;;;28.31;26.49;101373.22;5024552;28;20214;-69
2022/08/11 15:00:11;;;;;;;0.82;0.80;;;;;;;28.33;26.40;101367.72;5027022;28;20199;-68
2022/08/11 15:05:24;;;;;;;0.70;0.70;;;;;;;28.27;26.43;101369.13;5032837;28;20223;-69
2022/08/11 15:07:54;;;;;;;0.80;0.80;;;;;;;28.28;25.81;101361.91;5026714;28;20211;-71
2022/08/11 15:10:21;;;;;;;0.77;0.60;;;;;;;28.31;26.16;101358.97;5031531;28;20203;-70
2022/08/11 15:12:49;;;;;;;0.70;0.70;;;;;;;28.33;26.24;101355.16;5025711;28;20203;-73
2022/08/11 15:18:05;;;;;;;0.70;0.70;;;;;;;28.42;26.68;101358.81;5026441;28;20207;-73
2022/08/11 15:26:08;;;;;;;0.70;0.70;;;;;;;28.33;26.80;101347.09;4987946;28;20223;-72
2022/08/11 15:48:13;;;;;;;1.00;0.90;;;;;;;28.08;27.23;101327.03;5026256;28;20212;-71
2022/08/11 15:50:45;;;;;;;0.70;0.70;;;;;;;27.99;28.17;101313.63;5036304;28;20578;-72
2022/08/11 15:53:19;;;;;;;1.08;0.98;;;;;;;27.93;27.66;101320.34;5032989;28;20196;-71
2022/08/11 15:55:48;;;;;;;0.70;0.70;;;;;;;27.88;27.65;101312.72;5030796;28;20215;-74
2022/08/11 16:06:40;;;;;;;1.20;0.80;;;;;;;27.71;27.45;101303.47;5032594;28;20730;-70
2022/08/11 16:09:08;;;;;;;3.63;1.10;;;;;;;27.64;28.59;101293.44;5030104;28;20203;-70
2022/08/11 16:11:37;;;;;;;1.20;0.90;;;;;;;27.64;28.46;101301.50;5029084;28;20192;-72
2022/08/11 16:16:52;;;;;;;0.75;0.73;;;;;;;27.44;28.73;101300.53;5030451;28;20326;-69
2022/08/11 16:19:20;;;;;;;1.92;0.90;;;;;;;27.39;28.50;101304.47;5027913;28;20238;-71
2022/08/11 16:21:51;;;;;;;1.73;0.82;;;;;;;27.40;28.57;101305.31;5024202;28;20283;-69
2022/08/11 16:24:20;;;;;;;1.98;0.88;;;;;;;27.38;28.52;101297.41;5033133;28;20926;-71
2022/08/11 16:26:50;;;;;;;1.23;1.00;;;;;;;27.27;28.31;101292.16;5032145;28;20214;-71